sensor_id;sensor_type;location;lat;lon;timestamp;pressure;altitude;pressure_sealevel;temperature;humidity
69570;BME280;56781;42.292;23.146;2024-01-07T00:02:08;93211.81;;;0.98;79.36
69570;BME280;56781;42.292;23.146;2024-01-07T00:04:39;93711.66;;;4.29;79.76
69570;BME280;56781;42.292;23.146;2024-01-07T00:07:08;93733.03;;;4.50;80.90
69570;BME280;56781;42.292;23.146;2024-01-07T00:09:37;93700.34;;;4.07;81.83
69570;BME280;56781;42.292;23.146;2024-01-07T00:12:06;93809.75;;;4.71;82.33
69570;BME280;56781;42.292;23.146;2024-01-07T00:14:35;93804.63;;;4.76;82.81
69570;BME280;56781;42.292;23.146;2024-01-07T00:17:04;93789.06;;;4.84;82.92
69570;BME280;56781;42.292;23.146;2024-01-07T00:19:32;93683.75;;;4.35;81.79
69570;BME280;56781;42.292;23.146;2024-01-07T00:22:04;93758.41;;;5.14;81.22
69570;BME280;56781;42.292;23.146;2024-01-07T00:24:33;93477.47;;;3.19;81.19
69570;BME280;56781;42.292;23.146;2024-01-07T00:27:01;93356.03;;;2.24;81.22
69570;BME280;56781;42.292;23.146;2024-01-07T00:29:30;93035.88;;;0.06;81.13
69570;BME280;56781;42.292;23.146;2024-01-07T00:31:58;93113.59;;;0.76;81.54
69570;BME280;56781;42.292;23.146;2024-01-07T00:34:27;93122.81;;;0.75;81.29
69570;BME280;56781;42.292;23.146;2024-01-07T00:36:56;93740.38;;;5.04;81.68
69570;BME280;56781;42.292;23.146;2024-01-07T00:39:26;93117.28;;;0.89;81.67
69570;BME280;56781;42.292;23.146;2024-01-07T00:41:55;93152.38;;;1.16;81.22
69570;BME280;56781;42.292;23.146;2024-01-07T00:44:23;93633.59;;;4.27;81.68
69570;BME280;56781;42.292;23.146;2024-01-07T00:46:52;93435.25;;;3.02;82.02
69570;BME280;56781;42.292;23.146;2024-01-07T00:49:21;93179.63;;;1.25;81.25
69570;BME280;56781;42.292;23.146;2024-01-07T00:51:50;93673.97;;;4.41;81.09
69570;BME280;56781;42.292;23.146;2024-01-07T00:54:19;93728.22;;;4.88;82.34
69570;BME280;56781;42.292;23.146;2024-01-07T00:56:49;93724.03;;;4.84;81.88
69570;BME280;56781;42.292;23.146;2024-01-07T00:59:18;93606.59;;;4.24;81.78
69570;BME280;56781;42.292;23.146;2024-01-07T01:01:46;93605.88;;;4.19;81.58
69570;BME280;56781;42.292;23.146;2024-01-07T01:04:15;93380.88;;;2.42;82.34
69570;BME280;56781;42.292;23.146;2024-01-07T01:06:44;93706.47;;;4.69;82.53
69570;BME280;56781;42.292;23.146;2024-01-07T01:09:12;93305.66;;;1.79;82.41
69570;BME280;56781;42.292;23.146;2024-01-07T01:11:41;93583.72;;;4.01;81.40
69570;BME280;56781;42.292;23.146;2024-01-07T01:14:11;93317.88;;;1.87;82.29
69570;BME280;56781;42.292;23.146;2024-01-07T01:16:40;93107.56;;;0.19;82.66
69570;BME280;56781;42.292;23.146;2024-01-07T01:19:09;93727.66;;;4.47;83.33
69570;BME280;56781;42.292;23.146;2024-01-07T01:21:37;93466.22;;;2.94;83.59
69570;BME280;56781;42.292;23.146;2024-01-07T01:24:06;93349.72;;;1.99;83.59
69570;BME280;56781;42.292;23.146;2024-01-07T01:26:35;92839.34;;;-1.21;83.14
69570;BME280;56781;42.292;23.146;2024-01-07T01:29:04;93361.59;;;2.06;83.84
69570;BME280;56781;42.292;23.146;2024-01-07T01:31:33;93672.63;;;4.30;83.52
69570;BME280;56781;42.292;23.146;2024-01-07T01:34:02;93641.81;;;4.47;83.63
69570;BME280;56781;42.292;23.146;2024-01-07T01:36:31;93557.69;;;3.84;83.27
69570;BME280;56781;42.292;23.146;2024-01-07T01:39:00;93302.03;;;2.27;81.75
69570;BME280;56781;42.292;23.146;2024-01-07T01:41:29;93002.84;;;0.05;81.87
69570;BME280;56781;42.292;23.146;2024-01-07T01:43:58;93257.59;;;1.36;84.03
69570;BME280;56781;42.292;23.146;2024-01-07T01:46:29;93634.66;;;4.06;85.22
69570;BME280;56781;42.292;23.146;2024-01-07T01:49:00;93406.38;;;2.68;83.91
69570;BME280;56781;42.292;23.146;2024-01-07T01:51:30;93635.53;;;4.27;85.36
69570;BME280;56781;42.292;23.146;2024-01-07T01:53:59;93622.97;;;4.40;84.96
69570;BME280;56781;42.292;23.146;2024-01-07T01:56:29;93349.88;;;2.54;83.52
69570;BME280;56781;42.292;23.146;2024-01-07T01:58:58;93066.81;;;0.62;84.10
69570;BME280;56781;42.292;23.146;2024-01-07T02:01:27;93508.16;;;3.63;85.30
69570;BME280;56781;42.292;23.146;2024-01-07T02:03:56;93589.25;;;4.44;84.85
69570;BME280;56781;42.292;23.146;2024-01-07T02:06:26;93593.78;;;4.51;84.83
69570;BME280;56781;42.292;23.146;2024-01-07T02:08:55;92988.53;;;0.53;84.79
69570;BME280;56781;42.292;23.146;2024-01-07T02:11:24;93255.22;;;2.10;83.82
69570;BME280;56781;42.292;23.146;2024-01-07T02:13:53;93539.38;;;3.95;84.65
69570;BME280;56781;42.292;23.146;2024-01-07T02:16:22;93657.03;;;4.64;84.73
69570;BME280;56781;42.292;23.146;2024-01-07T02:18:51;92929.34;;;-0.15;83.70
69570;BME280;56781;42.292;23.146;2024-01-07T02:21:20;93347.56;;;2.52;84.62
69570;BME280;56781;42.292;23.146;2024-01-07T02:23:50;93224.53;;;2.00;85.08
69570;BME280;56781;42.292;23.146;2024-01-07T02:26:21;93101.91;;;1.24;85.35
69570;BME280;56781;42.292;23.146;2024-01-07T02:28:49;93000.06;;;0.54;85.71
69570;BME280;56781;42.292;23.146;2024-01-07T02:31:18;93239.44;;;2.09;87.52
69570;BME280;56781;42.292;23.146;2024-01-07T02:33:47;93695.78;;;5.08;88.45
69570;BME280;56781;42.292;23.146;2024-01-07T02:36:16;93135.97;;;1.41;88.17
69570;BME280;56781;42.292;23.146;2024-01-07T02:38:45;93239.53;;;2.32;88.63
69570;BME280;56781;42.292;23.146;2024-01-07T02:41:13;93250.38;;;2.83;88.40
69570;BME280;56781;42.292;23.146;2024-01-07T02:43:44;93257.50;;;2.70;88.91
69570;BME280;56781;42.292;23.146;2024-01-07T02:46:14;93642.53;;;5.42;89.02
69570;BME280;56781;42.292;23.146;2024-01-07T02:48:43;93703.19;;;5.91;89.17
69570;BME280;56781;42.292;23.146;2024-01-07T02:51:11;93487.75;;;4.33;88.97
69570;BME280;56781;42.292;23.146;2024-01-07T02:53:39;93342.19;;;3.57;88.86
69570;BME280;56781;42.292;23.146;2024-01-07T02:56:08;93724.59;;;6.09;88.88
69570;BME280;56781;42.292;23.146;2024-01-07T02:58:37;93610.75;;;5.42;89.31
69570;BME280;56781;42.292;23.146;2024-01-07T03:01:10;93325.56;;;3.59;89.01
69570;BME280;56781;42.292;23.146;2024-01-07T03:03:39;93280.53;;;3.28;89.45
69570;BME280;56781;42.292;23.146;2024-01-07T03:06:07;93339.97;;;3.75;89.59
69570;BME280;56781;42.292;23.146;2024-01-07T03:08:36;93406.56;;;4.53;89.01
69570;BME280;56781;42.292;23.146;2024-01-07T03:11:05;93493.03;;;5.03;89.71
69570;BME280;56781;42.292;23.146;2024-01-07T03:13:34;93514.59;;;5.10;89.41
69570;BME280;56781;42.292;23.146;2024-01-07T03:16:04;93313.16;;;4.05;88.93
69570;BME280;56781;42.292;23.146;2024-01-07T03:18:34;93265.28;;;4.02;88.88
69570;BME280;56781;42.292;23.146;2024-01-07T03:21:03;93244.00;;;4.04;88.39
69570;BME280;56781;42.292;23.146;2024-01-07T03:23:32;93612.09;;;6.63;88.82
69570;BME280;56781;42.292;23.146;2024-01-07T03:26:01;93592.31;;;6.62;88.04
69570;BME280;56781;42.292;23.146;2024-01-07T03:28:29;93246.81;;;4.36;87.47
69570;BME280;56781;42.292;23.146;2024-01-07T03:30:58;93600.22;;;6.73;87.71
69570;BME280;56781;42.292;23.146;2024-01-07T03:33:26;93297.94;;;4.31;88.18
69570;BME280;56781;42.292;23.146;2024-01-07T03:36:00;93446.09;;;5.26;88.73
69570;BME280;56781;42.292;23.146;2024-01-07T03:38:29;93224.09;;;3.74;88.46
69570;BME280;56781;42.292;23.146;2024-01-07T03:40:57;93604.00;;;6.43;88.51
69570;BME280;56781;42.292;23.146;2024-01-07T03:43:27;93504.38;;;5.54;89.61
69570;BME280;56781;42.292;23.146;2024-01-07T03:45:55;93295.47;;;4.20;89.24
69570;BME280;56781;42.292;23.146;2024-01-07T03:48:24;93302.59;;;4.30;89.05
69570;BME280;56781;42.292;23.146;2024-01-07T03:50:53;93574.47;;;6.29;89.43
69570;BME280;56781;42.292;23.146;2024-01-07T03:53:23;93141.63;;;3.26;89.10
69570;BME280;56781;42.292;23.146;2024-01-07T03:55:52;93127.13;;;3.16;89.03
69570;BME280;56781;42.292;23.146;2024-01-07T03:58:20;93260.72;;;4.18;88.85
69570;BME280;56781;42.292;23.146;2024-01-07T04:00:49;93555.97;;;6.40;88.40
69570;BME280;56781;42.292;23.146;2024-01-07T04:03:18;93012.38;;;2.64;88.01
69570;BME280;56781;42.292;23.146;2024-01-07T04:05:46;92953.69;;;2.29;87.86
69570;BME280;56781;42.292;23.146;2024-01-07T04:08:15;93468.31;;;5.74;87.92
69570;BME280;56781;42.292;23.146;2024-01-07T04:10:45;93515.28;;;5.71;88.61
69570;BME280;56781;42.292;23.146;2024-01-07T04:13:13;93090.13;;;2.93;87.63
69570;BME280;56781;42.292;23.146;2024-01-07T04:15:42;93605.94;;;6.26;88.58
69570;BME280;56781;42.292;23.146;2024-01-07T04:18:11;93411.63;;;4.71;88.92
69570;BME280;56781;42.292;23.146;2024-01-07T04:20:39;93102.88;;;2.93;89.15
69570;BME280;56781;42.292;23.146;2024-01-07T04:23:08;93492.53;;;5.65;89.81
69570;BME280;56781;42.292;23.146;2024-01-07T04:25:36;93015.06;;;2.64;88.60
69570;BME280;56781;42.292;23.146;2024-01-07T04:28:08;93572.47;;;6.33;88.47
69570;BME280;56781;42.292;23.146;2024-01-07T04:30:37;93016.56;;;2.46;87.65
69570;BME280;56781;42.292;23.146;2024-01-07T04:33:05;93342.63;;;4.39;88.74
69570;BME280;56781;42.292;23.146;2024-01-07T04:35:34;93296.44;;;3.90;89.01
69570;BME280;56781;42.292;23.146;2024-01-07T04:38:04;93506.97;;;5.42;90.36
69570;BME280;56781;42.292;23.146;2024-01-07T04:40:32;93421.22;;;4.75;89.20
69570;BME280;56781;42.292;23.146;2024-01-07T04:43:01;93060.94;;;2.44;88.79
69570;BME280;56781;42.292;23.146;2024-01-07T04:45:31;93240.66;;;3.56;89.17
69570;BME280;56781;42.292;23.146;2024-01-07T04:48:00;93096.50;;;2.59;89.40
69570;BME280;56781;42.292;23.146;2024-01-07T04:50:29;93471.00;;;4.81;89.71
69570;BME280;56781;42.292;23.146;2024-01-07T04:52:57;93517.44;;;5.60;89.00
69570;BME280;56781;42.292;23.146;2024-01-07T04:55:27;93594.72;;;6.08;89.12
69570;BME280;56781;42.292;23.146;2024-01-07T04:57:55;93525.84;;;5.65;89.42
69570;BME280;56781;42.292;23.146;2024-01-07T05:00:24;93059.63;;;2.53;89.42
69570;BME280;56781;42.292;23.146;2024-01-07T05:02:54;93101.72;;;2.70;89.06
69570;BME280;56781;42.292;23.146;2024-01-07T05:05:23;93576.59;;;5.85;89.82
69570;BME280;56781;42.292;23.146;2024-01-07T05:07:51;92960.47;;;1.43;89.73
69570;BME280;56781;42.292;23.146;2024-01-07T05:10:20;93177.34;;;3.14;90.09
69570;BME280;56781;42.292;23.146;2024-01-07T05:12:49;93568.41;;;6.05;89.65
69570;BME280;56781;42.292;23.146;2024-01-07T05:15:17;92916.41;;;1.57;89.48
69570;BME280;56781;42.292;23.146;2024-01-07T05:17:46;93312.16;;;4.15;89.56
69570;BME280;56781;42.292;23.146;2024-01-07T05:20:16;92999.94;;;2.27;89.21
69570;BME280;56781;42.292;23.146;2024-01-07T05:22:45;93027.47;;;2.38;88.99
69570;BME280;56781;42.292;23.146;2024-01-07T05:25:14;93189.03;;;3.70;89.14
69570;BME280;56781;42.292;23.146;2024-01-07T05:27:42;93285.25;;;4.28;88.99
69570;BME280;56781;42.292;23.146;2024-01-07T05:30:11;93394.13;;;4.95;89.61
69570;BME280;56781;42.292;23.146;2024-01-07T05:32:40;93565.97;;;6.10;89.94
69570;BME280;56781;42.292;23.146;2024-01-07T05:35:09;92861.06;;;1.28;88.89
69570;BME280;56781;42.292;23.146;2024-01-07T05:37:39;93180.50;;;3.52;88.56
69570;BME280;56781;42.292;23.146;2024-01-07T05:40:08;93013.59;;;2.40;88.57
69570;BME280;56781;42.292;23.146;2024-01-07T05:42:37;93569.78;;;6.13;89.00
69570;BME280;56781;42.292;23.146;2024-01-07T05:45:07;93561.16;;;6.18;88.47
69570;BME280;56781;42.292;23.146;2024-01-07T05:47:35;93281.16;;;4.19;88.18
69570;BME280;56781;42.292;23.146;2024-01-07T05:50:04;93566.91;;;6.04;89.28
69570;BME280;56781;42.292;23.146;2024-01-07T05:52:33;93561.63;;;5.96;88.65
69570;BME280;56781;42.292;23.146;2024-01-07T05:55:05;93259.59;;;3.56;89.35
69570;BME280;56781;42.292;23.146;2024-01-07T05:57:34;93560.41;;;5.81;90.10
69570;BME280;56781;42.292;23.146;2024-01-07T06:00:03;93308.88;;;4.07;89.41
69570;BME280;56781;42.292;23.146;2024-01-07T06:02:34;93451.56;;;5.06;89.98
69570;BME280;56781;42.292;23.146;2024-01-07T06:05:03;93286.09;;;3.85;88.86
69570;BME280;56781;42.292;23.146;2024-01-07T06:07:32;93560.69;;;5.67;89.93
69570;BME280;56781;42.292;23.146;2024-01-07T06:10:03;93578.44;;;5.51;90.16
69570;BME280;56781;42.292;23.146;2024-01-07T06:12:32;93223.53;;;2.96;89.81
69570;BME280;56781;42.292;23.146;2024-01-07T06:15:01;93086.47;;;2.13;89.09
69570;BME280;56781;42.292;23.146;2024-01-07T06:17:30;93373.56;;;4.18;89.47
69570;BME280;56781;42.292;23.146;2024-01-07T06:19:58;93493.66;;;4.91;89.80
69570;BME280;56781;42.292;23.146;2024-01-07T06:22:27;93594.50;;;5.62;89.99
69570;BME280;56781;42.292;23.146;2024-01-07T06:24:56;93224.25;;;3.23;88.93
69570;BME280;56781;42.292;23.146;2024-01-07T06:27:26;93346.63;;;3.91;89.33
69570;BME280;56781;42.292;23.146;2024-01-07T06:29:55;93599.50;;;5.84;89.92
69570;BME280;56781;42.292;23.146;2024-01-07T06:32:23;93430.13;;;4.76;90.03
69570;BME280;56781;42.292;23.146;2024-01-07T06:34:53;93507.53;;;5.33;89.04
69570;BME280;56781;42.292;23.146;2024-01-07T06:37:21;93065.41;;;2.28;88.00
69570;BME280;56781;42.292;23.146;2024-01-07T06:39:50;93601.28;;;5.90;88.42
69570;BME280;56781;42.292;23.146;2024-01-07T06:42:19;93401.34;;;4.42;88.90
69570;BME280;56781;42.292;23.146;2024-01-07T06:44:49;93423.50;;;4.57;88.97
69570;BME280;56781;42.292;23.146;2024-01-07T06:47:17;93165.91;;;2.59;88.82
69570;BME280;56781;42.292;23.146;2024-01-07T06:49:46;93602.13;;;5.87;88.80
69570;BME280;56781;42.292;23.146;2024-01-07T06:52:14;93518.94;;;5.24;89.78
69570;BME280;56781;42.292;23.146;2024-01-07T06:54:43;93292.81;;;3.76;89.30
69570;BME280;56781;42.292;23.146;2024-01-07T06:57:12;93211.38;;;3.31;88.90
69570;BME280;56781;42.292;23.146;2024-01-07T06:59:40;93086.00;;;2.65;88.04
69570;BME280;56781;42.292;23.146;2024-01-07T07:02:10;93069.59;;;2.56;87.67
69570;BME280;56781;42.292;23.146;2024-01-07T07:04:39;93395.63;;;4.96;87.68
69570;BME280;56781;42.292;23.146;2024-01-07T07:07:08;93644.50;;;6.54;87.18
69570;BME280;56781;42.292;23.146;2024-01-07T07:09:36;93602.94;;;6.57;87.80
69570;BME280;56781;42.292;23.146;2024-01-07T07:12:05;93525.31;;;5.90;86.79
69570;BME280;56781;42.292;23.146;2024-01-07T07:14:35;93395.25;;;5.14;86.25
69570;BME280;56781;42.292;23.146;2024-01-07T07:17:03;93586.53;;;6.44;86.81
69570;BME280;56781;42.292;23.146;2024-01-07T07:19:34;93254.88;;;4.40;86.03
69570;BME280;56781;42.292;23.146;2024-01-07T07:22:03;93502.44;;;6.08;86.08
69570;BME280;56781;42.292;23.146;2024-01-07T07:24:33;93243.00;;;4.70;85.37
69570;BME280;56781;42.292;23.146;2024-01-07T07:27:01;93316.84;;;5.23;85.11
69570;BME280;56781;42.292;23.146;2024-01-07T07:29:30;93619.00;;;7.13;85.89
69570;BME280;56781;42.292;23.146;2024-01-07T07:31:59;92922.91;;;2.66;85.08
69570;BME280;56781;42.292;23.146;2024-01-07T07:34:27;93597.72;;;7.24;85.83
69570;BME280;56781;42.292;23.146;2024-01-07T07:36:58;93598.72;;;7.47;86.14
69570;BME280;56781;42.292;23.146;2024-01-07T07:39:26;93224.16;;;5.45;82.85
69570;BME280;56781;42.292;23.146;2024-01-07T07:41:55;93497.75;;;7.58;80.84
69570;BME280;56781;42.292;23.146;2024-01-07T07:44:24;93594.63;;;8.23;78.71
69570;BME280;56781;42.292;23.146;2024-01-07T07:46:52;93291.88;;;6.23;79.88
69570;BME280;56781;42.292;23.146;2024-01-07T07:49:21;93215.31;;;5.86;78.03
69570;BME280;56781;42.292;23.146;2024-01-07T07:51:54;93070.38;;;5.03;78.62
69570;BME280;56781;42.292;23.146;2024-01-07T07:54:25;93032.34;;;5.07;77.66
69570;BME280;56781;42.292;23.146;2024-01-07T07:56:53;93416.22;;;7.80;77.56
69570;BME280;56781;42.292;23.146;2024-01-07T07:59:22;93594.81;;;9.27;76.65
69570;BME280;56781;42.292;23.146;2024-01-07T08:01:50;93595.22;;;9.25;75.23
69570;BME280;56781;42.292;23.146;2024-01-07T08:04:19;93573.81;;;9.02;76.14
69570;BME280;56781;42.292;23.146;2024-01-07T08:06:48;93478.25;;;9.05;74.26
69570;BME280;56781;42.292;23.146;2024-01-07T08:09:16;93021.16;;;6.36;73.33
69570;BME280;56781;42.292;23.146;2024-01-07T08:11:47;93375.38;;;9.06;72.42
69570;BME280;56781;42.292;23.146;2024-01-07T08:14:15;93060.16;;;6.90;72.66
69570;BME280;56781;42.292;23.146;2024-01-07T08:16:43;93553.44;;;10.04;72.67
69570;BME280;56781;42.292;23.146;2024-01-07T08:19:12;93210.63;;;8.32;72.04
69570;BME280;56781;42.292;23.146;2024-01-07T08:21:41;93518.78;;;10.72;68.88
69570;BME280;56781;42.292;23.146;2024-01-07T08:24:10;93129.00;;;7.44;70.67
69570;BME280;56781;42.292;23.146;2024-01-07T08:26:38;92992.34;;;6.52;70.64
69570;BME280;56781;42.292;23.146;2024-01-07T08:29:08;93307.84;;;9.60;69.07
69570;BME280;56781;42.292;23.146;2024-01-07T08:31:37;93048.88;;;9.06;62.68
69570;BME280;56781;42.292;23.146;2024-01-07T08:34:05;93297.06;;;11.03;61.76
69570;BME280;56781;42.292;23.146;2024-01-07T08:36:33;93532.91;;;13.77;58.35
69570;BME280;56781;42.292;23.146;2024-01-07T08:39:02;93102.09;;;10.36;60.78
69570;BME280;56781;42.292;23.146;2024-01-07T08:41:31;93299.75;;;11.88;58.12
69570;BME280;56781;42.292;23.146;2024-01-07T08:43:59;93031.63;;;9.19;60.95
69570;BME280;56781;42.292;23.146;2024-01-07T08:46:29;93098.59;;;9.38;62.68
69570;BME280;56781;42.292;23.146;2024-01-07T08:48:58;93391.19;;;10.60;64.52
69570;BME280;56781;42.292;23.146;2024-01-07T08:51:27;93546.34;;;11.42;66.63
69570;BME280;56781;42.292;23.146;2024-01-07T08:53:57;93242.13;;;8.86;68.04
69570;BME280;56781;42.292;23.146;2024-01-07T08:56:25;93259.44;;;8.61;69.37
69570;BME280;56781;42.292;23.146;2024-01-07T08:58:53;93046.16;;;7.36;67.57
69570;BME280;56781;42.292;23.146;2024-01-07T09:01:22;93375.91;;;9.54;67.50
69570;BME280;56781;42.292;23.146;2024-01-07T09:03:53;92997.97;;;7.14;66.19
69570;BME280;56781;42.292;23.146;2024-01-07T09:06:22;93021.47;;;7.08;67.59
69570;BME280;56781;42.292;23.146;2024-01-07T09:08:51;92897.59;;;5.84;66.67
69570;BME280;56781;42.292;23.146;2024-01-07T09:11:19;93053.97;;;6.90;66.77
69570;BME280;56781;42.292;23.146;2024-01-07T09:13:48;93152.06;;;7.74;67.55
69570;BME280;56781;42.292;23.146;2024-01-07T09:16:17;92918.88;;;6.33;67.62
69570;BME280;56781;42.292;23.146;2024-01-07T09:18:46;92926.38;;;6.29;66.31
69570;BME280;56781;42.292;23.146;2024-01-07T09:21:16;93468.47;;;10.02;65.35
69570;BME280;56781;42.292;23.146;2024-01-07T09:23:45;93505.84;;;10.54;64.62
69570;BME280;56781;42.292;23.146;2024-01-07T09:26:14;93517.09;;;10.56;64.91
69570;BME280;56781;42.292;23.146;2024-01-07T09:28:43;93507.22;;;10.59;64.68
69570;BME280;56781;42.292;23.146;2024-01-07T09:31:12;93400.47;;;10.04;64.11
69570;BME280;56781;42.292;23.146;2024-01-07T09:33:41;93429.03;;;10.12;63.88
69570;BME280;56781;42.292;23.146;2024-01-07T09:36:10;92890.72;;;6.05;65.07
69570;BME280;56781;42.292;23.146;2024-01-07T09:38:56;93400.19;;;9.30;65.37
69570;BME280;56781;42.292;23.146;2024-01-07T09:41:25;93494.88;;;10.05;67.48
69570;BME280;56781;42.292;23.146;2024-01-07T09:43:54;93520.31;;;9.92;68.07
69570;BME280;56781;42.292;23.146;2024-01-07T09:46:24;93038.22;;;6.84;67.36
69570;BME280;56781;42.292;23.146;2024-01-07T09:48:54;93148.63;;;7.83;68.30
69570;BME280;56781;42.292;23.146;2024-01-07T09:51:23;93181.38;;;8.45;65.55
69570;BME280;56781;42.292;23.146;2024-01-07T09:53:58;93373.00;;;9.98;64.77
69570;BME280;56781;42.292;23.146;2024-01-07T09:56:36;93517.88;;;10.94;61.28
69570;BME280;56781;42.292;23.146;2024-01-07T09:59:08;93009.69;;;7.55;62.33
69570;BME280;56781;42.292;23.146;2024-01-07T10:01:37;93077.41;;;8.15;61.46
69570;BME280;56781;42.292;23.146;2024-01-07T10:04:06;92795.69;;;6.18;61.98
69570;BME280;56781;42.292;23.146;2024-01-07T10:06:35;93451.94;;;10.73;62.56
69570;BME280;56781;42.292;23.146;2024-01-07T10:09:07;92949.28;;;7.07;63.03
69570;BME280;56781;42.292;23.146;2024-01-07T10:11:36;92800.25;;;5.86;63.16
69570;BME280;56781;42.292;23.146;2024-01-07T10:14:05;92908.59;;;6.28;64.61
69570;BME280;56781;42.292;23.146;2024-01-07T10:16:33;92905.31;;;6.33;65.95
69570;BME280;56781;42.292;23.146;2024-01-07T10:19:02;93177.72;;;8.17;63.74
69570;BME280;56781;42.292;23.146;2024-01-07T10:21:31;93359.25;;;9.21;65.53
69570;BME280;56781;42.292;23.146;2024-01-07T10:24:09;92783.47;;;5.44;64.87
69570;BME280;56781;42.292;23.146;2024-01-07T10:26:39;92940.66;;;6.42;65.71
69570;BME280;56781;42.292;23.146;2024-01-07T10:29:08;92785.66;;;5.71;64.89
69570;BME280;56781;42.292;23.146;2024-01-07T10:31:38;93122.56;;;8.26;63.38
69570;BME280;56781;42.292;23.146;2024-01-07T10:34:07;93329.31;;;10.26;62.41
69570;BME280;56781;42.292;23.146;2024-01-07T10:36:37;93217.19;;;9.83;61.49
69570;BME280;56781;42.292;23.146;2024-01-07T10:39:08;93419.28;;;11.67;61.76
69570;BME280;56781;42.292;23.146;2024-01-07T10:41:38;92787.63;;;7.30;60.09
69570;BME280;56781;42.292;23.146;2024-01-07T10:44:07;93267.97;;;10.63;60.35
69570;BME280;56781;42.292;23.146;2024-01-07T10:46:36;93322.75;;;11.06;59.02
69570;BME280;56781;42.292;23.146;2024-01-07T10:49:19;93413.94;;;11.21;60.48
69570;BME280;56781;42.292;23.146;2024-01-07T10:51:56;93149.19;;;9.12;62.71
69570;BME280;56781;42.292;23.146;2024-01-07T10:54:29;93161.84;;;8.78;61.39
69570;BME280;56781;42.292;23.146;2024-01-07T10:56:59;93139.53;;;8.61;62.42
69570;BME280;56781;42.292;23.146;2024-01-07T10:59:29;93399.38;;;10.69;63.80
69570;BME280;56781;42.292;23.146;2024-01-07T11:02:00;93318.84;;;9.96;63.51
69570;BME280;56781;42.292;23.146;2024-01-07T11:04:37;93398.94;;;10.71;62.45
69570;BME280;56781;42.292;23.146;2024-01-07T11:07:18;93129.88;;;8.78;61.78
69570;BME280;56781;42.292;23.146;2024-01-07T11:10:00;92768.69;;;6.36;62.44
69570;BME280;56781;42.292;23.146;2024-01-07T11:12:32;93136.59;;;8.96;64.27
69570;BME280;56781;42.292;23.146;2024-01-07T11:15:02;93150.53;;;8.98;63.42
69570;BME280;56781;42.292;23.146;2024-01-07T11:17:40;93415.34;;;10.61;61.93
69570;BME280;56781;42.292;23.146;2024-01-07T11:20:17;92935.25;;;7.30;63.63
69570;BME280;56781;42.292;23.146;2024-01-07T11:22:47;93303.63;;;9.77;63.42
69570;BME280;56781;42.292;23.146;2024-01-07T11:25:38;93152.16;;;8.86;63.78
69570;BME280;56781;42.292;23.146;2024-01-07T11:28:07;92970.66;;;7.80;63.67
69570;BME280;56781;42.292;23.146;2024-01-07T11:30:38;93133.03;;;8.68;63.75
69570;BME280;56781;42.292;23.146;2024-01-07T11:33:11;93002.31;;;7.96;63.65
69570;BME280;56781;42.292;23.146;2024-01-07T11:35:55;93405.91;;;10.81;64.72
69570;BME280;56781;42.292;23.146;2024-01-07T11:38:25;93320.69;;;10.36;62.97
69570;BME280;56781;42.292;23.146;2024-01-07T11:40:56;93035.38;;;8.66;62.12
69570;BME280;56781;42.292;23.146;2024-01-07T11:43:26;93215.38;;;9.89;61.99
69570;BME280;56781;42.292;23.146;2024-01-07T11:45:56;93371.88;;;10.73;63.14
69570;BME280;56781;42.292;23.146;2024-01-07T11:48:24;92896.53;;;7.58;62.55
69570;BME280;56781;42.292;23.146;2024-01-07T11:50:53;92989.19;;;8.04;61.79
69570;BME280;56781;42.292;23.146;2024-01-07T11:53:22;93099.28;;;8.74;62.80
69570;BME280;56781;42.292;23.146;2024-01-07T11:55:51;93431.44;;;10.87;62.86
69570;BME280;56781;42.292;23.146;2024-01-07T11:58:21;93068.47;;;8.46;63.27
69570;BME280;56781;42.292;23.146;2024-01-07T12:00:50;93070.81;;;8.84;63.40
69570;BME280;56781;42.292;23.146;2024-01-07T12:03:18;93416.34;;;11.10;63.30
69570;BME280;56781;42.292;23.146;2024-01-07T12:05:47;93142.81;;;8.96;63.33
69570;BME280;56781;42.292;23.146;2024-01-07T12:08:16;93209.88;;;9.52;63.82
69570;BME280;56781;42.292;23.146;2024-01-07T12:10:44;93422.00;;;10.88;63.83
69570;BME280;56781;42.292;23.146;2024-01-07T12:13:13;93048.22;;;8.56;61.81
69570;BME280;56781;42.292;23.146;2024-01-07T12:15:44;93122.81;;;9.08;62.81
69570;BME280;56781;42.292;23.146;2024-01-07T12:18:14;93315.53;;;10.57;61.57
69570;BME280;56781;42.292;23.146;2024-01-07T12:20:54;92927.00;;;7.93;61.49
69570;BME280;56781;42.292;23.146;2024-01-07T12:23:23;93049.94;;;9.00;61.77
69570;BME280;56781;42.292;23.146;2024-01-07T12:25:52;93136.66;;;9.69;61.57
69570;BME280;56781;42.292;23.146;2024-01-07T12:28:20;93003.59;;;8.72;61.84
69570;BME280;56781;42.292;23.146;2024-01-07T12:30:51;93369.50;;;11.36;61.19
69570;BME280;56781;42.292;23.146;2024-01-07T12:33:19;92904.44;;;7.83;62.45
69570;BME280;56781;42.292;23.146;2024-01-07T12:35:48;93412.44;;;11.63;61.93
69570;BME280;56781;42.292;23.146;2024-01-07T12:38:23;92943.16;;;8.46;60.97
69570;BME280;56781;42.292;23.146;2024-01-07T12:40:52;92902.69;;;7.98;60.37
69570;BME280;56781;42.292;23.146;2024-01-07T12:43:21;93426.31;;;11.50;61.06
69570;BME280;56781;42.292;23.146;2024-01-07T12:45:51;92984.25;;;8.30;61.11
69570;BME280;56781;42.292;23.146;2024-01-07T12:48:22;93251.47;;;9.84;61.02
69570;BME280;56781;42.292;23.146;2024-01-07T12:50:50;93354.41;;;10.52;61.15
69570;BME280;56781;42.292;23.146;2024-01-07T12:53:19;92842.47;;;6.97;61.82
69570;BME280;56781;42.292;23.146;2024-01-07T12:55:48;93139.50;;;9.01;61.75
69570;BME280;56781;42.292;23.146;2024-01-07T12:58:17;93353.66;;;10.42;62.67
69570;BME280;56781;42.292;23.146;2024-01-07T13:00:46;92983.81;;;7.82;62.20
69570;BME280;56781;42.292;23.146;2024-01-07T13:03:16;93129.13;;;8.87;62.52
69570;BME280;56781;42.292;23.146;2024-01-07T13:05:47;92866.53;;;7.08;61.78
69570;BME280;56781;42.292;23.146;2024-01-07T13:08:17;93364.69;;;10.20;62.76
69570;BME280;56781;42.292;23.146;2024-01-07T13:10:49;93448.44;;;10.82;63.00
69570;BME280;56781;42.292;23.146;2024-01-07T13:13:18;93352.28;;;10.28;62.08